sensor_id;sensor_type;location;lat;lon;timestamp;P1;durP1;ratioP1;P2;durP2;ratioP2
35839;SDS011;35514;50.504;30.500;2023-08-20T00:01:37;36.58;;;17.02;;
35839;SDS011;35514;50.504;30.500;2023-08-20T00:04:05;38.25;;;18.13;;
35839;SDS011;35514;50.504;30.500;2023-08-20T00:06:33;40.25;;;17.95;;
35839;SDS011;35514;50.504;30.500;2023-08-20T00:09:01;36.97;;;17.10;;
35839;SDS011;35514;50.504;30.500;2023-08-20T00:11:30;42.47;;;17.50;;
35839;SDS011;35514;50.504;30.500;2023-08-20T00:13:57;39.08;;;17.98;;
35839;SDS011;35514;50.504;30.500;2023-08-20T00:16:25;34.95;;;18.65;;
35839;SDS011;35514;50.504;30.500;2023-08-20T00:18:55;41.40;;;19.35;;
35839;SDS011;35514;50.504;30.500;2023-08-20T00:21:23;49.83;;;19.52;;
35839;SDS011;35514;50.504;30.500;2023-08-20T00:23:51;46.67;;;19.63;;
35839;SDS011;35514;50.504;30.500;2023-08-20T00:26:21;41.17;;;18.27;;
35839;SDS011;35514;50.504;30.500;2023-08-20T00:28:52;49.47;;;20.02;;
35839;SDS011;35514;50.504;30.500;2023-08-20T00:31:20;43.20;;;19.30;;
35839;SDS011;35514;50.504;30.500;2023-08-20T00:33:48;51.05;;;20.80;;
35839;SDS011;35514;50.504;30.500;2023-08-20T00:36:33;40.23;;;18.37;;
35839;SDS011;35514;50.504;30.500;2023-08-20T00:39:01;46.80;;;19.58;;
35839;SDS011;35514;50.504;30.500;2023-08-20T00:41:29;36.95;;;17.13;;
35839;SDS011;35514;50.504;30.500;2023-08-20T00:43:57;36.03;;;17.15;;
35839;SDS011;35514;50.504;30.500;2023-08-20T00:46:25;44.42;;;17.95;;
35839;SDS011;35514;50.504;30.500;2023-08-20T00:48:53;41.58;;;17.65;;
35839;SDS011;35514;50.504;30.500;2023-08-20T00:51:21;45.47;;;17.55;;
35839;SDS011;35514;50.504;30.500;2023-08-20T00:53:50;41.35;;;17.30;;
35839;SDS011;35514;50.504;30.500;2023-08-20T00:56:18;45.88;;;19.67;;
35839;SDS011;35514;50.504;30.500;2023-08-20T00:58:46;42.78;;;19.58;;
35839;SDS011;35514;50.504;30.500;2023-08-20T01:01:14;42.28;;;18.30;;
35839;SDS011;35514;50.504;30.500;2023-08-20T01:03:41;40.60;;;17.65;;
35839;SDS011;35514;50.504;30.500;2023-08-20T01:06:12;45.10;;;18.38;;
35839;SDS011;35514;50.504;30.500;2023-08-20T01:08:43;44.35;;;17.92;;
35839;SDS011;35514;50.504;30.500;2023-08-20T01:11:16;42.45;;;19.27;;
35839;SDS011;35514;50.504;30.500;2023-08-20T01:13:44;44.70;;;18.90;;
35839;SDS011;35514;50.504;30.500;2023-08-20T01:16:12;35.35;;;19.23;;
35839;SDS011;35514;50.504;30.500;2023-08-20T01:18:43;47.40;;;20.98;;
35839;SDS011;35514;50.504;30.500;2023-08-20T01:21:13;38.38;;;19.33;;
35839;SDS011;35514;50.504;30.500;2023-08-20T01:23:55;32.25;;;17.40;;
35839;SDS011;35514;50.504;30.500;2023-08-20T01:29:12;34.10;;;16.25;;
35839;SDS011;35514;50.504;30.500;2023-08-20T01:31:40;30.98;;;17.27;;
35839;SDS011;35514;50.504;30.500;2023-08-20T01:34:08;32.78;;;16.05;;
35839;SDS011;35514;50.504;30.500;2023-08-20T01:36:36;25.60;;;14.10;;
35839;SDS011;35514;50.504;30.500;2023-08-20T01:39:05;32.30;;;16.08;;
35839;SDS011;35514;50.504;30.500;2023-08-20T01:41:33;41.00;;;16.42;;
35839;SDS011;35514;50.504;30.500;2023-08-20T01:44:00;25.98;;;14.73;;
35839;SDS011;35514;50.504;30.500;2023-08-20T01:46:30;31.08;;;15.45;;
35839;SDS011;35514;50.504;30.500;2023-08-20T01:48:57;28.48;;;15.10;;
35839;SDS011;35514;50.504;30.500;2023-08-20T01:51:25;24.33;;;13.93;;
35839;SDS011;35514;50.504;30.500;2023-08-20T01:53:53;27.38;;;14.20;;
35839;SDS011;35514;50.504;30.500;2023-08-20T01:56:21;30.60;;;15.98;;
35839;SDS011;35514;50.504;30.500;2023-08-20T01:58:48;27.67;;;14.60;;
35839;SDS011;35514;50.504;30.500;2023-08-20T02:01:16;25.75;;;15.02;;
35839;SDS011;35514;50.504;30.500;2023-08-20T02:03:48;31.10;;;14.35;;
35839;SDS011;35514;50.504;30.500;2023-08-20T02:06:16;24.23;;;14.63;;
35839;SDS011;35514;50.504;30.500;2023-08-20T02:08:46;27.02;;;13.32;;
35839;SDS011;35514;50.504;30.500;2023-08-20T02:11:14;29.58;;;15.43;;
35839;SDS011;35514;50.504;30.500;2023-08-20T02:13:44;24.45;;;13.80;;
35839;SDS011;35514;50.504;30.500;2023-08-20T02:16:12;29.60;;;15.40;;
35839;SDS011;35514;50.504;30.500;2023-08-20T02:18:40;31.83;;;15.82;;
35839;SDS011;35514;50.504;30.500;2023-08-20T02:21:12;26.67;;;13.85;;
35839;SDS011;35514;50.504;30.500;2023-08-20T02:23:39;29.67;;;15.02;;
35839;SDS011;35514;50.504;30.500;2023-08-20T02:26:07;29.48;;;16.13;;
35839;SDS011;35514;50.504;30.500;2023-08-20T02:28:35;30.83;;;16.77;;
35839;SDS011;35514;50.504;30.500;2023-08-20T02:31:04;27.58;;;16.30;;
35839;SDS011;35514;50.504;30.500;2023-08-20T02:33:31;29.52;;;16.20;;
35839;SDS011;35514;50.504;30.500;2023-08-20T02:36:00;29.33;;;15.25;;
35839;SDS011;35514;50.504;30.500;2023-08-20T02:38:30;31.33;;;17.13;;
35839;SDS011;35514;50.504;30.500;2023-08-20T02:40:57;32.05;;;17.63;;
35839;SDS011;35514;50.504;30.500;2023-08-20T02:43:25;30.60;;;17.75;;
35839;SDS011;35514;50.504;30.500;2023-08-20T02:45:53;33.13;;;17.90;;
35839;SDS011;35514;50.504;30.500;2023-08-20T02:48:21;32.10;;;16.58;;
35839;SDS011;35514;50.504;30.500;2023-08-20T02:50:53;29.52;;;16.40;;
35839;SDS011;35514;50.504;30.500;2023-08-20T02:53:21;32.33;;;17.55;;
35839;SDS011;35514;50.504;30.500;2023-08-20T02:55:50;33.10;;;17.38;;
35839;SDS011;35514;50.504;30.500;2023-08-20T02:58:18;37.38;;;17.65;;
35839;SDS011;35514;50.504;30.500;2023-08-20T03:00:45;31.35;;;18.20;;
35839;SDS011;35514;50.504;30.500;2023-08-20T03:03:13;33.60;;;18.40;;
35839;SDS011;35514;50.504;30.500;2023-08-20T03:05:41;36.35;;;19.77;;
35839;SDS011;35514;50.504;30.500;2023-08-20T03:08:09;39.78;;;19.85;;
35839;SDS011;35514;50.504;30.500;2023-08-20T03:10:37;45.25;;;22.15;;
35839;SDS011;35514;50.504;30.500;2023-08-20T03:13:06;41.72;;;22.70;;
35839;SDS011;35514;50.504;30.500;2023-08-20T03:15:34;40.92;;;22.17;;
35839;SDS011;35514;50.504;30.500;2023-08-20T03:18:01;46.03;;;21.63;;
35839;SDS011;35514;50.504;30.500;2023-08-20T03:20:29;43.15;;;22.58;;
35839;SDS011;35514;50.504;30.500;2023-08-20T03:22:58;50.67;;;26.58;;
35839;SDS011;35514;50.504;30.500;2023-08-20T03:25:26;51.15;;;28.23;;
35839;SDS011;35514;50.504;30.500;2023-08-20T03:27:53;43.42;;;24.55;;
35839;SDS011;35514;50.504;30.500;2023-08-20T03:30:23;53.00;;;25.85;;
35839;SDS011;35514;50.504;30.500;2023-08-20T03:32:50;51.38;;;24.02;;
35839;SDS011;35514;50.504;30.500;2023-08-20T03:35:18;47.10;;;25.27;;
35839;SDS011;35514;50.504;30.500;2023-08-20T03:37:46;47.03;;;21.13;;
35839;SDS011;35514;50.504;30.500;2023-08-20T03:40:14;45.35;;;25.00;;
35839;SDS011;35514;50.504;30.500;2023-08-20T03:42:42;55.33;;;29.55;;
35839;SDS011;35514;50.504;30.500;2023-08-20T03:45:10;55.47;;;29.55;;
35839;SDS011;35514;50.504;30.500;2023-08-20T03:47:39;61.13;;;31.25;;
35839;SDS011;35514;50.504;30.500;2023-08-20T03:50:10;60.08;;;29.48;;
35839;SDS011;35514;50.504;30.500;2023-08-20T03:52:38;45.13;;;25.15;;
35839;SDS011;35514;50.504;30.500;2023-08-20T03:55:06;59.03;;;27.52;;
35839;SDS011;35514;50.504;30.500;2023-08-20T03:57:34;54.70;;;30.20;;
35839;SDS011;35514;50.504;30.500;2023-08-20T04:00:03;50.38;;;26.05;;
35839;SDS011;35514;50.504;30.500;2023-08-20T04:02:35;65.38;;;30.90;;
35839;SDS011;35514;50.504;30.500;2023-08-20T04:05:04;64.15;;;32.90;;
35839;SDS011;35514;50.504;30.500;2023-08-20T04:07:32;66.13;;;33.88;;
35839;SDS011;35514;50.504;30.500;2023-08-20T04:10:00;71.03;;;35.20;;
35839;SDS011;35514;50.504;30.500;2023-08-20T04:12:28;66.40;;;30.02;;
35839;SDS011;35514;50.504;30.500;2023-08-20T04:14:56;62.88;;;30.90;;
35839;SDS011;35514;50.504;30.500;2023-08-20T04:17:24;56.92;;;28.55;;
35839;SDS011;35514;50.504;30.500;2023-08-20T04:19:51;53.42;;;28.05;;
35839;SDS011;35514;50.504;30.500;2023-08-20T04:22:21;53.60;;;27.60;;
35839;SDS011;35514;50.504;30.500;2023-08-20T04:24:48;49.20;;;26.15;;
35839;SDS011;35514;50.504;30.500;2023-08-20T04:27:16;46.15;;;24.83;;
35839;SDS011;35514;50.504;30.500;2023-08-20T04:29:44;44.63;;;25.88;;
35839;SDS011;35514;50.504;30.500;2023-08-20T04:32:12;45.70;;;23.77;;
35839;SDS011;35514;50.504;30.500;2023-08-20T04:34:39;38.63;;;22.55;;
35839;SDS011;35514;50.504;30.500;2023-08-20T04:37:07;36.85;;;22.40;;
35839;SDS011;35514;50.504;30.500;2023-08-20T04:39:36;42.72;;;23.23;;
35839;SDS011;35514;50.504;30.500;2023-08-20T04:42:04;49.85;;;22.83;;
35839;SDS011;35514;50.504;30.500;2023-08-20T04:44:33;40.38;;;22.25;;
35839;SDS011;35514;50.504;30.500;2023-08-20T04:47:01;41.67;;;20.23;;
35839;SDS011;35514;50.504;30.500;2023-08-20T04:49:28;40.90;;;19.33;;
35839;SDS011;35514;50.504;30.500;2023-08-20T04:51:56;36.05;;;19.52;;
35839;SDS011;35514;50.504;30.500;2023-08-20T04:54:24;31.02;;;18.52;;
35839;SDS011;35514;50.504;30.500;2023-08-20T04:56:53;42.05;;;19.52;;
35839;SDS011;35514;50.504;30.500;2023-08-20T04:59:21;33.35;;;19.30;;
35839;SDS011;35514;50.504;30.500;2023-08-20T05:01:49;35.78;;;19.38;;
35839;SDS011;35514;50.504;30.500;2023-08-20T05:04:16;39.95;;;18.65;;
35839;SDS011;35514;50.504;30.500;2023-08-20T05:06:44;32.83;;;17.25;;
35839;SDS011;35514;50.504;30.500;2023-08-20T05:09:12;33.50;;;15.98;;
35839;SDS011;35514;50.504;30.500;2023-08-20T05:11:39;38.10;;;16.15;;
35839;SDS011;35514;50.504;30.500;2023-08-20T05:14:09;30.88;;;16.88;;
35839;SDS011;35514;50.504;30.500;2023-08-20T05:16:36;33.08;;;16.80;;
35839;SDS011;35514;50.504;30.500;2023-08-20T05:19:04;30.80;;;13.88;;
35839;SDS011;35514;50.504;30.500;2023-08-20T05:21:32;31.80;;;14.95;;
35839;SDS011;35514;50.504;30.500;2023-08-20T05:24:00;27.45;;;13.63;;
35839;SDS011;35514;50.504;30.500;2023-08-20T05:26:29;30.20;;;14.77;;
35839;SDS011;35514;50.504;30.500;2023-08-20T05:28:58;26.95;;;13.00;;
35839;SDS011;35514;50.504;30.500;2023-08-20T05:31:28;27.05;;;14.05;;
35839;SDS011;35514;50.504;30.500;2023-08-20T05:34:06;25.65;;;13.02;;
35839;SDS011;35514;50.504;30.500;2023-08-20T05:36:33;26.85;;;12.23;;
35839;SDS011;35514;50.504;30.500;2023-08-20T05:39:02;29.10;;;13.75;;
35839;SDS011;35514;50.504;30.500;2023-08-20T05:41:30;19.13;;;11.70;;
35839;SDS011;35514;50.504;30.500;2023-08-20T05:43:58;23.27;;;12.63;;
35839;SDS011;35514;50.504;30.500;2023-08-20T05:46:25;20.48;;;12.07;;
35839;SDS011;35514;50.504;30.500;2023-08-20T05:48:55;21.00;;;11.70;;
35839;SDS011;35514;50.504;30.500;2023-08-20T05:51:22;18.50;;;11.43;;
35839;SDS011;35514;50.504;30.500;2023-08-20T05:53:50;22.10;;;10.82;;
35839;SDS011;35514;50.504;30.500;2023-08-20T05:56:20;16.88;;;10.02;;
35839;SDS011;35514;50.504;30.500;2023-08-20T05:58:48;18.45;;;9.77;;
35839;SDS011;35514;50.504;30.500;2023-08-20T06:01:15;16.45;;;9.77;;
35839;SDS011;35514;50.504;30.500;2023-08-20T06:03:43;15.90;;;8.38;;
35839;SDS011;35514;50.504;30.500;2023-08-20T06:06:12;17.38;;;8.90;;
35839;SDS011;35514;50.504;30.500;2023-08-20T06:08:40;29.08;;;7.85;;
35839;SDS011;35514;50.504;30.500;2023-08-20T06:11:24;15.45;;;7.80;;
35839;SDS011;35514;50.504;30.500;2023-08-20T06:13:52;12.80;;;8.13;;
35839;SDS011;35514;50.504;30.500;2023-08-20T06:16:20;16.20;;;7.05;;
35839;SDS011;35514;50.504;30.500;2023-08-20T06:18:47;14.98;;;8.10;;
35839;SDS011;35514;50.504;30.500;2023-08-20T06:21:18;20.08;;;7.95;;
35839;SDS011;35514;50.504;30.500;2023-08-20T06:23:45;14.00;;;7.15;;
35839;SDS011;35514;50.504;30.500;2023-08-20T06:26:13;14.05;;;7.30;;
35839;SDS011;35514;50.504;30.500;2023-08-20T06:28:41;10.07;;;7.25;;
35839;SDS011;35514;50.504;30.500;2023-08-20T06:31:09;15.20;;;8.63;;
35839;SDS011;35514;50.504;30.500;2023-08-20T06:33:37;12.50;;;7.85;;
35839;SDS011;35514;50.504;30.500;2023-08-20T06:36:05;14.35;;;7.43;;
35839;SDS011;35514;50.504;30.500;2023-08-20T06:38:34;16.52;;;7.25;;
35839;SDS011;35514;50.504;30.500;2023-08-20T06:41:03;12.85;;;6.95;;
35839;SDS011;35514;50.504;30.500;2023-08-20T06:43:31;17.45;;;7.28;;
35839;SDS011;35514;50.504;30.500;2023-08-20T06:46:00;12.55;;;6.50;;
35839;SDS011;35514;50.504;30.500;2023-08-20T06:48:28;17.98;;;7.75;;
35839;SDS011;35514;50.504;30.500;2023-08-20T06:50:55;12.05;;;6.70;;
35839;SDS011;35514;50.504;30.500;2023-08-20T06:53:23;14.35;;;6.65;;
35839;SDS011;35514;50.504;30.500;2023-08-20T06:55:55;10.68;;;6.18;;
35839;SDS011;35514;50.504;30.500;2023-08-20T06:58:22;9.77;;;5.90;;
35839;SDS011;35514;50.504;30.500;2023-08-20T07:00:50;15.73;;;7.43;;
35839;SDS011;35514;50.504;30.500;2023-08-20T07:03:18;14.50;;;8.52;;
35839;SDS011;35514;50.504;30.500;2023-08-20T07:05:46;12.70;;;7.72;;
35839;SDS011;35514;50.504;30.500;2023-08-20T07:08:14;10.73;;;7.57;;
35839;SDS011;35514;50.504;30.500;2023-08-20T07:10:43;11.00;;;6.22;;
35839;SDS011;35514;50.504;30.500;2023-08-20T07:13:13;15.38;;;6.15;;
35839;SDS011;35514;50.504;30.500;2023-08-20T07:15:41;7.20;;;4.50;;
35839;SDS011;35514;50.504;30.500;2023-08-20T07:18:09;9.82;;;4.75;;
35839;SDS011;35514;50.504;30.500;2023-08-20T07:20:39;10.43;;;5.00;;
35839;SDS011;35514;50.504;30.500;2023-08-20T07:23:07;11.35;;;4.60;;
35839;SDS011;35514;50.504;30.500;2023-08-20T07:25:35;5.40;;;3.97;;
35839;SDS011;35514;50.504;30.500;2023-08-20T07:28:04;7.35;;;4.00;;
35839;SDS011;35514;50.504;30.500;2023-08-20T07:30:33;5.28;;;3.72;;
35839;SDS011;35514;50.504;30.500;2023-08-20T07:33:04;9.68;;;4.70;;
35839;SDS011;35514;50.504;30.500;2023-08-20T07:35:32;7.50;;;4.45;;
35839;SDS011;35514;50.504;30.500;2023-08-20T07:38:02;12.07;;;4.82;;
35839;SDS011;35514;50.504;30.500;2023-08-20T07:40:29;8.27;;;4.38;;
35839;SDS011;35514;50.504;30.500;2023-08-20T07:43:03;5.72;;;3.92;;
35839;SDS011;35514;50.504;30.500;2023-08-20T07:45:35;5.10;;;4.05;;
35839;SDS011;35514;50.504;30.500;2023-08-20T07:48:04;14.20;;;3.70;;
35839;SDS011;35514;50.504;30.500;2023-08-20T07:50:32;7.63;;;3.78;;
35839;SDS011;35514;50.504;30.500;2023-08-20T07:53:00;7.18;;;3.90;;
35839;SDS011;35514;50.504;30.500;2023-08-20T07:55:28;9.75;;;4.45;;
35839;SDS011;35514;50.504;30.500;2023-08-20T07:57:56;8.70;;;3.75;;
35839;SDS011;35514;50.504;30.500;2023-08-20T08:00:24;9.43;;;3.70;;
35839;SDS011;35514;50.504;30.500;2023-08-20T08:03:05;6.68;;;3.65;;
35839;SDS011;35514;50.504;30.500;2023-08-20T08:05:58;4.70;;;4.22;;
35839;SDS011;35514;50.504;30.500;2023-08-20T08:08:26;7.38;;;3.58;;
35839;SDS011;35514;50.504;30.500;2023-08-20T08:10:53;12.45;;;3.70;;
35839;SDS011;35514;50.504;30.500;2023-08-20T08:13:22;6.90;;;3.08;;
35839;SDS011;35514;50.504;30.500;2023-08-20T08:15:50;6.97;;;3.10;;
35839;SDS011;35514;50.504;30.500;2023-08-20T08:18:21;7.00;;;2.75;;
35839;SDS011;35514;50.504;30.500;2023-08-20T08:20:49;7.97;;;4.15;;
35839;SDS011;35514;50.504;30.500;2023-08-20T08:23:17;8.20;;;2.75;;
35839;SDS011;35514;50.504;30.500;2023-08-20T08:25:45;8.85;;;3.05;;
35839;SDS011;35514;50.504;30.500;2023-08-20T08:28:13;5.72;;;3.10;;
35839;SDS011;35514;50.504;30.500;2023-08-20T08:30:40;9.85;;;4.32;;
35839;SDS011;35514;50.504;30.500;2023-08-20T08:33:08;9.48;;;4.18;;
35839;SDS011;35514;50.504;30.500;2023-08-20T08:35:41;3.92;;;2.75;;
35839;SDS011;35514;50.504;30.500;2023-08-20T08:38:09;4.90;;;2.88;;
35839;SDS011;35514;50.504;30.500;2023-08-20T08:40:37;9.07;;;3.50;;
35839;SDS011;35514;50.504;30.500;2023-08-20T08:43:06;6.15;;;3.28;;
35839;SDS011;35514;50.504;30.500;2023-08-20T08:45:34;7.30;;;2.90;;
35839;SDS011;35514;50.504;30.500;2023-08-20T08:48:02;4.00;;;3.00;;
35839;SDS011;35514;50.504;30.500;2023-08-20T08:50:32;5.13;;;3.22;;
35839;SDS011;35514;50.504;30.500;2023-08-20T08:53:02;7.05;;;3.88;;
35839;SDS011;35514;50.504;30.500;2023-08-20T08:55:30;6.53;;;2.70;;
35839;SDS011;35514;50.504;30.500;2023-08-20T08:57:57;10.80;;;3.00;;
35839;SDS011;35514;50.504;30.500;2023-08-20T09:00:25;4.32;;;3.03;;
35839;SDS011;35514;50.504;30.500;2023-08-20T09:02:53;9.40;;;2.75;;
35839;SDS011;35514;50.504;30.500;2023-08-20T09:05:21;6.15;;;3.35;;
35839;SDS011;35514;50.504;30.500;2023-08-20T09:07:50;4.63;;;3.03;;
35839;SDS011;35514;50.504;30.500;2023-08-20T09:12:51;4.57;;;3.00;;
35839;SDS011;35514;50.504;30.500;2023-08-20T09:15:21;5.20;;;3.05;;
35839;SDS011;35514;50.504;30.500;2023-08-20T09:17:49;7.38;;;3.08;;
35839;SDS011;35514;50.504;30.500;2023-08-20T09:20:17;9.60;;;2.63;;
35839;SDS011;35514;50.504;30.500;2023-08-20T09:22:48;11.05;;;3.17;;
35839;SDS011;35514;50.504;30.500;2023-08-20T09:25:16;9.07;;;2.67;;
35839;SDS011;35514;50.504;30.500;2023-08-20T09:27:44;6.30;;;2.50;;
35839;SDS011;35514;50.504;30.500;2023-08-20T09:30:16;3.38;;;2.70;;
35839;SDS011;35514;50.504;30.500;2023-08-20T09:32:45;3.38;;;2.67;;
35839;SDS011;35514;50.504;30.500;2023-08-20T09:35:17;6.07;;;2.40;;
35839;SDS011;35514;50.504;30.500;2023-08-20T09:37:45;12.10;;;2.63;;
35839;SDS011;35514;50.504;30.500;2023-08-20T09:40:13;6.93;;;2.45;;
35839;SDS011;35514;50.504;30.500;2023-08-20T09:42:41;2.90;;;2.10;;
35839;SDS011;35514;50.504;30.500;2023-08-20T09:45:10;7.90;;;2.60;;
35839;SDS011;35514;50.504;30.500;2023-08-20T09:47:39;8.70;;;2.58;;
35839;SDS011;35514;50.504;30.500;2023-08-20T09:50:08;5.72;;;2.85;;
35839;SDS011;35514;50.504;30.500;2023-08-20T09:52:38;4.80;;;2.97;;
35839;SDS011;35514;50.504;30.500;2023-08-20T09:55:07;9.25;;;2.60;;
35839;SDS011;35514;50.504;30.500;2023-08-20T09:57:36;7.05;;;2.92;;
35839;SDS011;35514;50.504;30.500;2023-08-20T10:00:05;8.75;;;3.08;;
35839;SDS011;35514;50.504;30.500;2023-08-20T10:02:36;11.13;;;2.97;;
35839;SDS011;35514;50.504;30.500;2023-08-20T10:05:06;4.38;;;3.17;;
35839;SDS011;35514;50.504;30.500;2023-08-20T10:07:35;5.95;;;4.25;;
35839;SDS011;35514;50.504;30.500;2023-08-20T10:10:04;5.35;;;2.63;;
35839;SDS011;35514;50.504;30.500;2023-08-20T10:12:33;3.90;;;2.38;;
35839;SDS011;35514;50.504;30.500;2023-08-20T10:15:01;6.60;;;2.67;;
35839;SDS011;35514;50.504;30.500;2023-08-20T10:20:01;4.13;;;2.65;;
35839;SDS011;35514;50.504;30.500;2023-08-20T10:22:35;4.70;;;2.47;;
35839;SDS011;35514;50.504;30.500;2023-08-20T10:25:05;4.50;;;2.50;;
35839;SDS011;35514;50.504;30.500;2023-08-20T10:27:34;5.13;;;2.92;;
35839;SDS011;35514;50.504;30.500;2023-08-20T10:30:07;4.03;;;2.90;;
35839;SDS011;35514;50.504;30.500;2023-08-20T10:32:44;5.13;;;3.95;;
35839;SDS011;35514;50.504;30.500;2023-08-20T10:35:12;7.82;;;2.60;;
35839;SDS011;35514;50.504;30.500;2023-08-20T10:37:41;3.85;;;2.70;;
35839;SDS011;35514;50.504;30.500;2023-08-20T10:43:23;6.30;;;3.20;;
35839;SDS011;35514;50.504;30.500;2023-08-20T10:46:01;5.60;;;2.88;;
35839;SDS011;35514;50.504;30.500;2023-08-20T10:48:35;5.45;;;3.85;;
35839;SDS011;35514;50.504;30.500;2023-08-20T10:51:06;10.10;;;3.80;;
35839;SDS011;35514;50.504;30.500;2023-08-20T10:53:39;6.85;;;3.72;;
35839;SDS011;35514;50.504;30.500;2023-08-20T10:56:10;10.20;;;3.47;;
35839;SDS011;35514;50.504;30.500;2023-08-20T10:58:41;6.93;;;3.53;;
35839;SDS011;35514;50.504;30.500;2023-08-20T11:01:13;5.00;;;3.35;;
35839;SDS011;35514;50.504;30.500;2023-08-20T11:03:42;9.32;;;4.00;;
35839;SDS011;35514;50.504;30.500;2023-08-20T11:06:10;7.38;;;3.83;;
35839;SDS011;35514;50.504;30.500;2023-08-20T11:08:39;10.38;;;3.58;;
35839;SDS011;35514;50.504;30.500;2023-08-20T11:11:08;9.02;;;3.90;;
35839;SDS011;35514;50.504;30.500;2023-08-20T11:13:36;9.40;;;3.63;;
35839;SDS011;35514;50.504;30.500;2023-08-20T11:16:05;7.05;;;4.00;;
35839;SDS011;35514;50.504;30.500;2023-08-20T11:18:34;8.50;;;3.88;;
35839;SDS011;35514;50.504;30.500;2023-08-20T11:21:02;6.80;;;3.40;;
35839;SDS011;35514;50.504;30.500;2023-08-20T11:23:30;9.73;;;3.50;;
35839;SDS011;35514;50.504;30.500;2023-08-20T11:26:00;7.82;;;3.20;;
35839;SDS011;35514;50.504;30.500;2023-08-20T11:28:30;5.88;;;3.60;;
35839;SDS011;35514;50.504;30.500;2023-08-20T11:30:58;4.63;;;3.47;;
35839;SDS011;35514;50.504;30.500;2023-08-20T11:33:26;5.00;;;3.33;;
35839;SDS011;35514;50.504;30.500;2023-08-20T11:35:53;8.27;;;4.00;;
35839;SDS011;35514;50.504;30.500;2023-08-20T11:38:22;5.53;;;3.50;;
35839;SDS011;35514;50.504;30.500;2023-08-20T11:40:53;4.57;;;3.20;;
35839;SDS011;35514;50.504;30.500;2023-08-20T11:43:22;9.10;;;3.15;;
35839;SDS011;35514;50.504;30.500;2023-08-20T11:45:58;6.63;;;3.83;;
35839;SDS011;35514;50.504;30.500;2023-08-20T11:48:26;5.78;;;3.00;;
35839;SDS011;35514;50.504;30.500;2023-08-20T11:50:56;7.43;;;3.28;;
35839;SDS011;35514;50.504;30.500;2023-08-20T11:53:24;6.10;;;3.22;;
35839;SDS011;35514;50.504;30.500;2023-08-20T11:55:54;4.53;;;3.13;;
35839;SDS011;35514;50.504;30.500;2023-08-20T11:58:23;6.38;;;2.85;;
35839;SDS011;35514;50.504;30.500;2023-08-20T12:00:51;3.90;;;3.03;;
35839;SDS011;35514;50.504;30.500;2023-08-20T12:03:19;7.57;;;3.50;;
35839;SDS011;35514;50.504;30.500;2023-08-20T12:05:47;4.05;;;3.28;;
35839;SDS011;35514;50.504;30.500;2023-08-20T12:08:15;5.80;;;3.70;;
35839;SDS011;35514;50.504;30.500;2023-08-20T12:10:44;5.03;;;3.45;;
35839;SDS011;35514;50.504;30.500;2023-08-20T12:13:11;9.27;;;3.30;;
35839;SDS011;35514;50.504;30.500;2023-08-20T12:15:41;7.28;;;3.47;;
35839;SDS011;35514;50.504;30.500;2023-08-20T12:18:08;7.60;;;3.40;;
35839;SDS011;35514;50.504;30.500;2023-08-20T12:20:36;4.32;;;3.00;;
35839;SDS011;35514;50.504;30.500;2023-08-20T12:23:06;5.38;;;3.13;;
35839;SDS011;35514;50.504;30.500;2023-08-20T12:25:34;5.65;;;3.50;;
35839;SDS011;35514;50.504;30.500;2023-08-20T12:28:02;7.40;;;3.72;;
35839;SDS011;35514;50.504;30.500;2023-08-20T12:30:31;6.07;;;2.90;;
35839;SDS011;35514;50.504;30.500;2023-08-20T12:33:04;5.18;;;3.13;;
35839;SDS011;35514;50.504;30.500;2023-08-20T12:35:33;9.82;;;3.38;;
35839;SDS011;35514;50.504;30.500;2023-08-20T12:38:01;4.13;;;3.25;;
35839;SDS011;35514;50.504;30.500;2023-08-20T12:40:29;11.32;;;3.50;;
35839;SDS011;35514;50.504;30.500;2023-08-20T12:42:57;5.50;;;3.40;;
35839;SDS011;35514;50.504;30.500;2023-08-20T12:45:25;5.35;;;3.72;;
35839;SDS011;35514;50.504;30.500;2023-08-20T12:47:52;9.93;;;4.35;;
35839;SDS011;35514;50.504;30.500;2023-08-20T12:50:22;10.07;;;3.85;;
35839;SDS011;35514;50.504;30.500;2023-08-20T12:52:52;5.53;;;3.83;;
35839;SDS011;35514;50.504;30.500;2023-08-20T12:55:21;7.30;;;3.72;;
35839;SDS011;35514;50.504;30.500;2023-08-20T12:57:53;12.98;;;3.60;;
35839;SDS011;35514;50.504;30.500;2023-08-20T13:00:22;6.13;;;3.50;;
35839;SDS011;35514;50.504;30.500;2023-08-20T13:02:51;10.68;;;3.40;;
35839;SDS011;35514;50.504;30.500;2023-08-20T13:05:19;4.47;;;3.33;;
35839;SDS011;35514;50.504;30.500;2023-08-20T13:07:49;8.18;;;3.90;;
35839;SDS011;35514;50.504;30.500;2023-08-20T13:10:17;7.22;;;3.80;;
35839;SDS011;35514;50.504;30.500;2023-08-20T13:12:47;5.15;;;3.92;;
35839;SDS011;35514;50.504;30.500;2023-08-20T13:15:15;5.93;;;4.03;;
35839;SDS011;35514;50.504;30.500;2023-08-20T13:17:45;4.47;;;3.50;;
35839;SDS011;35514;50.504;30.500;2023-08-20T13:20:13;11.13;;;3.88;;
35839;SDS011;35514;50.504;30.500;2023-08-20T13:22:41;6.65;;;3.60;;
35839;SDS011;35514;50.504;30.500;2023-08-20T13:25:11;5.60;;;3.35;;
35839;SDS011;35514;50.504;30.500;2023-08-20T13:27:38;8.05;;;3.05;;
35839;SDS011;35514;50.504;30.500;2023-08-20T13:30:06;4.70;;;3.05;;
35839;SDS011;35514;50.504;30.500;2023-08-20T13:32:34;14.60;;;3.60;;
35839;SDS011;35514;50.504;30.500;2023-08-20T13:35:03;8.77;;;3.22;;
35839;SDS011;35514;50.504;30.500;2023-08-20T13:37:31;4.07;;;3.47;;
35839;SDS011;35514;50.504;30.500;2023-08-20T13:39:59;5.55;;;2.90;;
35839;SDS011;35514;50.504;30.500;2023-08-20T13:42:28;4.88;;;3.75;;
35839;SDS011;35514;50.504;30.500;2023-08-20T13:44:56;7.88;;;3.67;;
35839;SDS011;35514;50.504;30.500;2023-08-20T13:47:23;4.43;;;3.20;;
35839;SDS011;35514;50.504;30.500;2023-08-20T13:49:51;7.75;;;4.65;;
35839;SDS011;35514;50.504;30.500;2023-08-20T13:52:19;5.00;;;3.33;;
